createdAt,value
2018-03-06T00:01:21.964Z,74.60
2018-03-06T00:03:48.268Z,74.30
2018-03-06T00:06:14.581Z,74.20
2018-03-06T00:08:41.132Z,74.80
2018-03-06T00:11:07.416Z,74.10
2018-03-06T00:13:33.734Z,74.50
2018-03-06T00:16:00.258Z,74.40
2018-03-06T00:18:26.555Z,74.50
2018-03-06T00:20:52.831Z,74.60
2018-03-06T00:23:19.847Z,75.10
2018-03-06T00:25:46.107Z,75.00
2018-03-06T00:28:12.373Z,74.90
2018-03-06T00:30:38.714Z,75.20
2018-03-06T00:33:05.040Z,75.10
2018-03-06T00:35:32.047Z,74.70
2018-03-06T00:37:58.308Z,74.60
2018-03-06T00:40:25.029Z,74.60
2018-03-06T00:42:51.302Z,74.80
2018-03-06T00:45:17.555Z,75.10
2018-03-06T00:47:43.849Z,75.10
2018-03-06T00:50:10.110Z,74.90
2018-03-06T00:52:36.343Z,75.00
2018-03-06T00:55:02.635Z,75.00
2018-03-06T00:57:29.176Z,75.10
2018-03-06T00:59:55.661Z,75.10
2018-03-06T01:02:21.913Z,75.40
2018-03-06T01:04:48.171Z,75.20
2018-03-06T01:07:15.150Z,75.50
2018-03-06T01:09:41.430Z,75.40
2018-03-06T01:12:07.710Z,75.20
2018-03-06T01:14:33.975Z,75.50
2018-03-06T01:17:01.118Z,75.50
2018-03-06T01:19:27.431Z,75.70
2018-03-06T01:21:53.676Z,75.60
2018-03-06T01:24:20.861Z,75.40
2018-03-06T01:26:47.114Z,75.40
2018-03-06T01:29:13.444Z,75.50
2018-03-06T01:31:39.723Z,75.50
2018-03-06T01:34:06.007Z,76.10
2018-03-06T01:36:32.263Z,76.50
2018-03-06T01:38:58.534Z,76.60
2018-03-06T01:41:24.775Z,76.40
2018-03-06T01:43:51.023Z,76.30
2018-03-06T01:46:17.303Z,75.90
2018-03-06T01:48:43.584Z,76.10
2018-03-06T01:51:10.572Z,76.00
2018-03-06T01:53:37.031Z,76.00
2018-03-06T01:56:03.288Z,75.80
2018-03-06T01:58:29.584Z,76.20
2018-03-06T02:00:55.879Z,76.30
2018-03-06T02:03:22.319Z,76.40
2018-03-06T02:05:48.560Z,76.50
2018-03-06T02:08:14.871Z,76.30
2018-03-06T02:10:41.131Z,76.20
2018-03-06T02:13:07.511Z,76.30
2018-03-06T02:15:33.787Z,76.30
2018-03-06T02:18:00.375Z,76.40
2018-03-06T02:20:26.648Z,76.90
2018-03-06T02:22:52.899Z,76.90
2018-03-06T02:25:19.156Z,77.00
2018-03-06T02:27:45.556Z,76.60
2018-03-06T02:30:11.854Z,76.90
2018-03-06T02:32:38.843Z,76.80
2018-03-06T02:35:05.109Z,77.20
2018-03-06T02:37:31.373Z,76.50
2018-03-06T02:39:57.619Z,77.10
2018-03-06T02:42:23.955Z,76.60
2018-03-06T02:44:50.238Z,76.40
2018-03-06T02:47:16.651Z,76.60
2018-03-06T02:49:42.930Z,76.70
2018-03-06T02:52:09.902Z,76.50
2018-03-06T02:54:36.178Z,76.50
2018-03-06T02:57:02.455Z,76.70
2018-03-06T02:59:28.736Z,76.70
2018-03-06T03:01:54.999Z,76.90
2018-03-06T03:04:22.360Z,76.70
2018-03-06T03:06:48.606Z,76.70
2018-03-06T03:09:14.912Z,76.80
2018-03-06T03:11:41.204Z,76.50
2018-03-06T03:14:08.004Z,76.50
2018-03-06T03:16:34.260Z,76.40
2018-03-06T03:19:01.043Z,76.40
2018-03-06T03:21:27.337Z,76.50
2018-03-06T03:23:53.575Z,76.40
2018-03-06T03:26:19.846Z,76.60
2018-03-06T03:28:46.846Z,77.00
2018-03-06T03:31:13.340Z,77.00
2018-03-06T03:33:39.606Z,76.80
2018-03-06T03:36:06.365Z,76.80
2018-03-06T03:38:32.670Z,76.70
2018-03-06T03:40:58.948Z,76.60
2018-03-06T03:43:25.203Z,76.50
2018-03-06T03:45:51.494Z,76.90
2018-03-06T03:48:17.736Z,76.70
2018-03-06T03:50:44.004Z,76.80
2018-03-06T03:53:11.102Z,76.70
2018-03-06T03:55:37.607Z,76.70
2018-03-06T03:58:03.858Z,76.80
2018-03-06T04:00:30.291Z,76.90
2018-03-06T04:02:56.559Z,76.90
2018-03-06T04:05:23.148Z,76.90
2018-03-06T04:07:49.390Z,76.90
2018-03-06T04:10:15.684Z,76.90
2018-03-06T04:12:42.684Z,77.10
2018-03-06T04:15:08.938Z,76.80
2018-03-06T04:17:35.201Z,76.70
2018-03-06T04:20:01.469Z,77.00
2018-03-06T04:22:27.732Z,77.00
2018-03-06T04:24:54.024Z,77.10
2018-03-06T04:27:20.294Z,77.00
2018-03-06T04:29:46.615Z,77.00
2018-03-06T04:32:12.863Z,77.10
2018-03-06T04:34:39.136Z,77.40
2018-03-06T04:37:05.441Z,77.70
2018-03-06T04:39:31.759Z,77.60
2018-03-06T04:42:00.011Z,77.80
2018-03-06T04:44:26.260Z,77.70
2018-03-06T04:46:52.819Z,77.70
2018-03-06T04:49:19.795Z,78.10
2018-03-06T04:51:46.066Z,77.50
2018-03-06T04:56:51.965Z,77.20
2018-03-06T04:59:18.215Z,77.40
2018-03-06T05:01:45.231Z,77.60
2018-03-06T05:04:11.552Z,77.50
2018-03-06T05:06:37.835Z,78.10
2018-03-06T05:09:04.307Z,77.50
2018-03-06T05:11:30.582Z,77.50
2018-03-06T05:13:56.834Z,77.70
2018-03-06T05:16:23.836Z,78.00
2018-03-06T05:18:50.100Z,78.00
2018-03-06T05:21:16.351Z,78.70
2018-03-06T05:23:42.604Z,78.70
2018-03-06T05:26:08.871Z,78.00
2018-03-06T05:28:35.131Z,78.10
2018-03-06T05:31:01.395Z,78.10
2018-03-06T05:33:28.108Z,78.20
2018-03-06T05:35:54.379Z,78.70
2018-03-06T05:38:20.656Z,78.20
2018-03-06T05:40:47.679Z,78.10
2018-03-06T05:43:13.926Z,78.00
2018-03-06T05:45:40.209Z,78.30
2018-03-06T05:48:06.579Z,78.40
2018-03-06T05:50:33.123Z,78.10
2018-03-06T05:52:59.410Z,78.10
2018-03-06T05:55:25.729Z,78.10
2018-03-06T05:57:52.005Z,78.30
2018-03-06T06:00:18.747Z,78.10
2018-03-06T06:02:45.017Z,77.30
2018-03-06T06:05:11.299Z,77.70
2018-03-06T06:07:37.574Z,78.30
2018-03-06T06:10:03.844Z,78.40
2018-03-06T06:12:30.114Z,78.40
2018-03-06T06:14:56.405Z,78.40
2018-03-06T06:17:22.673Z,78.70
2018-03-06T06:19:49.345Z,79.10
2018-03-06T06:22:15.611Z,79.00
2018-03-06T06:24:41.859Z,78.90
2018-03-06T06:27:08.116Z,78.90
2018-03-06T06:29:34.354Z,78.80
2018-03-06T06:32:01.419Z,78.60
2018-03-06T06:34:27.656Z,78.50
2018-03-06T06:36:54.707Z,78.50
2018-03-06T06:39:20.952Z,78.40
2018-03-06T06:41:47.323Z,78.50
2018-03-06T06:44:13.871Z,78.40
2018-03-06T06:46:40.132Z,78.30
2018-03-06T06:49:06.432Z,78.40
2018-03-06T06:51:33.514Z,78.80
2018-03-06T06:54:00.052Z,78.90
2018-03-06T06:56:26.326Z,78.30
2018-03-06T06:58:52.614Z,78.00
2018-03-06T07:01:19.012Z,77.40
2018-03-06T07:03:46.100Z,77.20
2018-03-06T07:06:12.388Z,76.70
2018-03-06T07:08:39.581Z,76.50
2018-03-06T07:11:05.824Z,76.70
2018-03-06T07:13:38.308Z,76.70
2018-03-06T07:16:05.319Z,76.70
2018-03-06T07:18:31.579Z,76.70
2018-03-06T07:20:57.854Z,76.50
2018-03-06T07:23:24.132Z,76.10
2018-03-06T07:25:50.364Z,76.20
2018-03-06T07:28:16.628Z,77.10
2018-03-06T07:30:42.904Z,76.20
2018-03-06T07:33:10.382Z,76.40
2018-03-06T07:35:38.305Z,75.50
2018-03-06T07:38:04.576Z,75.50
2018-03-06T07:40:30.816Z,75.20
2018-03-06T07:42:57.128Z,75.00
2018-03-06T07:45:24.384Z,74.70
2018-03-06T07:47:50.678Z,74.70
2018-03-06T07:50:16.923Z,74.50
2018-03-06T07:52:43.759Z,74.30
2018-03-06T07:55:10.008Z,73.90
2018-03-06T07:57:38.134Z,73.40
2018-03-06T08:02:46.627Z,72.70
2018-03-06T08:05:12.923Z,72.10
2018-03-06T08:07:40.203Z,72.00
2018-03-06T08:10:06.452Z,71.80
2018-03-06T08:12:32.735Z,71.80
2018-03-06T08:14:59.012Z,71.20
2018-03-06T08:17:26.176Z,71.00
2018-03-06T08:19:52.507Z,70.90
2018-03-06T08:22:18.759Z,70.40
2018-03-06T08:24:45.990Z,70.00
2018-03-06T08:27:12.499Z,70.00
2018-03-06T08:29:38.734Z,70.20
2018-03-06T08:32:04.996Z,70.50
2018-03-06T08:37:03.226Z,70.10
2018-03-06T08:39:29.503Z,69.20
2018-03-06T08:41:55.726Z,68.20
2018-03-06T08:44:21.979Z,68.50
2018-03-06T08:46:48.223Z,68.10
2018-03-06T08:49:14.705Z,67.20
2018-03-06T08:51:40.927Z,66.70
2018-03-06T08:54:07.212Z,65.80
2018-03-06T08:56:38.264Z,65.30
2018-03-06T08:59:04.571Z,65.00
2018-03-06T09:01:30.802Z,65.00
2018-03-06T09:03:57.048Z,64.70
2018-03-06T09:06:23.310Z,64.60
2018-03-06T09:08:49.600Z,64.10
2018-03-06T09:11:15.835Z,62.20
2018-03-06T09:13:42.207Z,62.30
2018-03-06T09:16:08.471Z,62.00
2018-03-06T09:18:34.787Z,62.00
2018-03-06T09:21:01.015Z,61.50
2018-03-06T09:23:27.387Z,61.20
2018-03-06T09:25:53.619Z,61.30
2018-03-06T09:28:20.206Z,61.00
2018-03-06T09:30:46.452Z,60.90
2018-03-06T09:33:12.731Z,60.30
2018-03-06T09:35:38.982Z,60.20
2018-03-06T09:38:05.278Z,59.50
2018-03-06T09:40:31.519Z,59.90
2018-03-06T09:42:57.804Z,60.40
2018-03-06T09:45:24.097Z,60.50
2018-03-06T09:47:50.421Z,60.20
2018-03-06T09:50:16.980Z,59.50
2018-03-06T09:52:43.329Z,60.00
2018-03-06T09:55:09.587Z,59.50
2018-03-06T09:57:35.859Z,59.20
2018-03-06T10:00:02.131Z,59.30
2018-03-06T10:02:28.391Z,58.80
2018-03-06T10:04:54.644Z,59.40
2018-03-06T10:07:20.892Z,58.70
2018-03-06T10:09:47.144Z,58.30
2018-03-06T10:12:13.432Z,57.20
2018-03-06T10:14:39.746Z,57.70
2018-03-06T10:17:06.016Z,56.90
2018-03-06T10:19:32.344Z,57.00
2018-03-06T10:21:58.623Z,56.80
2018-03-06T10:24:24.880Z,56.50
2018-03-06T10:26:51.134Z,56.50
2018-03-06T10:29:17.538Z,56.40
2018-03-06T10:31:43.896Z,56.40
2018-03-06T10:34:10.149Z,56.70
2018-03-06T10:36:37.127Z,56.50
2018-03-06T10:39:03.428Z,56.50
2018-03-06T10:41:29.694Z,56.30
2018-03-06T10:43:55.974Z,55.70
2018-03-06T10:46:22.216Z,55.30
2018-03-06T10:48:48.556Z,56.30
2018-03-06T10:51:14.802Z,56.10
2018-03-06T10:53:41.145Z,54.40
2018-03-06T10:56:07.399Z,54.00
2018-03-06T10:58:33.729Z,55.30
2018-03-06T11:01:00.009Z,55.10
2018-03-06T11:03:26.336Z,55.30
2018-03-06T11:05:52.583Z,54.50
2018-03-06T11:08:18.924Z,54.10
2018-03-06T11:10:45.203Z,53.70
2018-03-06T11:13:11.480Z,53.70
2018-03-06T11:15:38.500Z,53.10
2018-03-06T11:18:04.752Z,53.10
2018-03-06T11:20:31.011Z,53.90
2018-03-06T11:22:57.279Z,53.50
2018-03-06T11:25:23.553Z,54.20
2018-03-06T11:27:49.809Z,53.30
2018-03-06T11:30:16.092Z,53.20
2018-03-06T11:32:42.372Z,52.50
2018-03-06T11:35:08.672Z,53.60
2018-03-06T11:37:34.931Z,51.60
2018-03-06T11:40:02.012Z,52.50
2018-03-06T11:42:28.283Z,52.40
2018-03-06T11:44:54.542Z,51.40
2018-03-06T11:47:21.933Z,52.00
2018-03-06T11:49:48.230Z,50.40
2018-03-06T11:52:14.474Z,50.20
2018-03-06T11:54:40.748Z,50.70
2018-03-06T11:57:06.992Z,49.40
2018-03-06T11:59:33.324Z,49.90
2018-03-06T12:02:00.592Z,49.40
2018-03-06T12:04:26.911Z,49.40
2018-03-06T12:06:54.130Z,48.20
2018-03-06T12:09:20.695Z,48.10
2018-03-06T12:11:49.155Z,49.20
2018-03-06T12:14:15.510Z,48.60
2018-03-06T12:16:41.785Z,49.00
2018-03-06T12:19:08.076Z,48.80
2018-03-06T12:21:34.330Z,47.80
2018-03-06T12:24:00.807Z,48.10
2018-03-06T12:26:27.067Z,48.30
2018-03-06T12:28:53.567Z,48.10
2018-03-06T12:31:19.995Z,49.00
2018-03-06T12:33:46.240Z,48.80
2018-03-06T12:36:12.499Z,49.10
2018-03-06T12:38:38.730Z,49.30
2018-03-06T12:41:06.333Z,49.90
2018-03-06T12:43:32.981Z,49.80
2018-03-06T12:45:59.314Z,51.40
2018-03-06T12:48:25.592Z,52.00
2018-03-06T12:50:52.142Z,53.40
2018-03-06T12:53:18.868Z,53.00
2018-03-06T12:55:45.528Z,52.50
2018-03-06T12:58:11.861Z,53.20
2018-03-06T13:00:38.859Z,52.80
2018-03-06T13:03:05.451Z,52.90
2018-03-06T13:05:31.698Z,52.30
2018-03-06T13:07:57.923Z,52.80
2018-03-06T13:10:24.475Z,52.10
2018-03-06T13:12:51.329Z,51.80
2018-03-06T13:15:17.598Z,50.70
2018-03-06T13:17:43.911Z,51.00
2018-03-06T13:20:10.506Z,52.20
2018-03-06T13:22:37.641Z,52.40
2018-03-06T13:25:04.659Z,53.60
2018-03-06T13:27:31.457Z,53.60
2018-03-06T13:29:58.479Z,53.00
2018-03-06T13:32:25.303Z,53.20
2018-03-06T13:34:51.556Z,52.80
2018-03-06T13:37:17.808Z,52.00
2018-03-06T13:39:44.791Z,51.20
2018-03-06T13:42:11.098Z,51.10
2018-03-06T13:44:37.465Z,51.10
2018-03-06T13:47:03.816Z,51.60
2018-03-06T13:49:30.073Z,51.60
2018-03-06T13:51:56.347Z,51.30
2018-03-06T13:54:22.628Z,51.90
2018-03-06T13:56:49.338Z,51.90
2018-03-06T13:59:19.636Z,51.40
2018-03-06T14:01:45.923Z,51.10
2018-03-06T14:04:13.140Z,50.40
2018-03-06T14:06:39.403Z,49.20
2018-03-06T14:09:05.652Z,49.10
2018-03-06T14:11:32.743Z,48.90
2018-03-06T14:13:59.012Z,50.00
2018-03-06T14:16:26.024Z,50.20
2018-03-06T14:18:52.270Z,50.20
2018-03-06T14:21:18.619Z,50.10
2018-03-06T14:23:45.666Z,50.70
2018-03-06T14:26:12.068Z,52.00
2018-03-06T14:28:38.312Z,52.50
2018-03-06T14:31:05.226Z,52.70
2018-03-06T14:33:31.792Z,52.70
2018-03-06T14:35:58.128Z,53.20
2018-03-06T14:38:24.407Z,53.30
2018-03-06T14:40:50.691Z,53.00
2018-03-06T14:43:16.938Z,52.10
2018-03-06T14:45:43.205Z,50.70
2018-03-06T14:48:09.487Z,47.90
2018-03-06T14:50:37.300Z,44.80
2018-03-06T14:53:03.665Z,43.50
2018-03-06T14:55:29.927Z,42.60
2018-03-06T14:57:56.215Z,42.00
2018-03-06T15:00:25.593Z,43.00
2018-03-06T15:02:51.875Z,43.40
2018-03-06T15:05:18.200Z,45.40
2018-03-06T15:07:44.507Z,46.70
2018-03-06T15:10:10.747Z,48.20
2018-03-06T15:12:37.037Z,48.90
2018-03-06T15:15:05.678Z,49.90
2018-03-06T15:17:32.012Z,51.70
2018-03-06T15:19:58.276Z,52.90
2018-03-06T15:22:24.605Z,54.20
2018-03-06T15:24:50.856Z,53.40
2018-03-06T15:27:18.053Z,51.10
2018-03-06T15:29:44.362Z,51.00
2018-03-06T15:32:11.427Z,53.70
2018-03-06T15:34:39.675Z,53.70
2018-03-06T15:37:06.732Z,56.30
2018-03-06T15:39:33.724Z,56.10
2018-03-06T15:41:59.987Z,56.10
2018-03-06T15:44:26.207Z,56.30
2018-03-06T15:46:52.970Z,56.40
2018-03-06T15:49:19.968Z,58.00
2018-03-06T15:51:46.311Z,58.00
2018-03-06T15:54:12.562Z,58.80
2018-03-06T15:56:38.826Z,59.80
2018-03-06T15:59:05.116Z,61.40
2018-03-06T16:01:35.336Z,61.80
2018-03-06T16:04:01.580Z,62.30
2018-03-06T16:06:27.896Z,62.70
2018-03-06T16:08:54.171Z,63.50
2018-03-06T16:11:21.390Z,64.40
2018-03-06T16:13:47.699Z,64.40
2018-03-06T16:16:13.948Z,64.50
2018-03-06T16:18:40.237Z,64.90
2018-03-06T16:21:06.560Z,65.50
2018-03-06T16:23:33.576Z,66.10
2018-03-06T16:25:59.855Z,66.00
2018-03-06T16:28:26.104Z,66.10
2018-03-06T16:30:54.403Z,66.50
2018-03-06T16:33:20.679Z,66.60
2018-03-06T16:35:46.944Z,66.90
2018-03-06T16:38:13.206Z,68.00
2018-03-06T16:40:39.529Z,67.50
2018-03-06T16:43:05.820Z,67.40
2018-03-06T16:45:32.095Z,67.40
2018-03-06T16:47:58.379Z,67.60
2018-03-06T16:50:24.667Z,68.10
2018-03-06T16:52:50.941Z,68.50
2018-03-06T16:55:17.220Z,68.80
2018-03-06T16:57:44.474Z,68.90
2018-03-06T17:00:10.788Z,68.90
2018-03-06T17:02:37.083Z,69.20
2018-03-06T17:05:03.400Z,69.20
2018-03-06T17:07:29.655Z,69.20
2018-03-06T17:10:00.468Z,69.70
2018-03-06T17:12:26.748Z,69.80
2018-03-06T17:14:53.351Z,69.80
2018-03-06T17:17:19.631Z,70.10
2018-03-06T17:19:45.879Z,70.10
2018-03-06T17:22:12.134Z,70.10
2018-03-06T17:24:38.451Z,70.30
2018-03-06T17:27:04.709Z,70.30
2018-03-06T17:29:32.019Z,70.90
2018-03-06T17:31:58.330Z,70.80
2018-03-06T17:34:24.616Z,70.90
2018-03-06T17:36:51.632Z,70.50
2018-03-06T17:39:18.576Z,70.50
2018-03-06T17:41:44.906Z,70.50
2018-03-06T17:44:11.164Z,70.80
2018-03-06T17:46:38.456Z,70.80
2018-03-06T17:49:04.799Z,71.00
2018-03-06T17:51:31.060Z,70.90
2018-03-06T17:53:57.324Z,70.90
2018-03-06T17:56:23.563Z,71.10
2018-03-06T17:58:49.834Z,71.30
2018-03-06T18:01:17.461Z,71.50
2018-03-06T18:03:44.462Z,71.10
2018-03-06T18:06:10.743Z,71.10
2018-03-06T18:08:37.042Z,71.10
2018-03-06T18:11:03.304Z,71.40
2018-03-06T18:13:36.042Z,71.00
2018-03-06T18:16:02.399Z,70.80
2018-03-06T18:18:28.683Z,70.90
2018-03-06T18:20:54.925Z,70.80
2018-03-06T18:23:23.076Z,71.10
2018-03-06T18:25:50.131Z,71.30
2018-03-06T18:28:17.150Z,72.30
2018-03-06T18:30:44.175Z,72.40
2018-03-06T18:33:10.434Z,72.40
2018-03-06T18:35:36.703Z,72.50
2018-03-06T18:38:03.002Z,72.50
2018-03-06T18:40:29.252Z,72.50
2018-03-06T18:42:55.519Z,72.70
2018-03-06T18:45:21.795Z,72.60
2018-03-06T18:47:48.060Z,72.60
2018-03-06T18:53:10.065Z,72.30
2018-03-06T18:55:36.304Z,72.20
2018-03-06T18:58:03.380Z,72.40
2018-03-06T19:00:52.681Z,72.30
2018-03-06T19:03:31.067Z,72.80
2018-03-06T19:06:24.265Z,73.20
2018-03-06T19:11:31.773Z,74.00
2018-03-06T19:13:59.419Z,74.10
2018-03-06T19:16:25.643Z,74.10
2018-03-06T19:18:51.886Z,73.80
2018-03-06T19:21:18.121Z,74.00
2018-03-06T19:23:44.394Z,73.90
2018-03-06T19:26:10.709Z,73.90
2018-03-06T19:28:37.080Z,73.80
2018-03-06T19:31:03.346Z,74.40
2018-03-06T19:33:35.701Z,73.80
2018-03-06T19:36:01.978Z,74.80
2018-03-06T19:38:29.128Z,74.10
2018-03-06T19:40:55.367Z,74.40
2018-03-06T19:43:21.620Z,74.40
2018-03-06T19:45:48.264Z,74.10
2018-03-06T19:48:14.514Z,75.30
2018-03-06T19:50:40.790Z,74.50
2018-03-06T19:53:07.811Z,75.60
2018-03-06T19:55:34.087Z,76.20
2018-03-06T19:58:00.369Z,76.90
2018-03-06T20:00:26.615Z,74.60
2018-03-06T20:02:52.856Z,76.40
2018-03-06T20:05:20.150Z,77.30
2018-03-06T20:07:46.407Z,77.40
2018-03-06T20:10:12.738Z,77.90
2018-03-06T20:12:39.007Z,78.40
2018-03-06T20:15:11.380Z,79.30
2018-03-06T20:17:37.696Z,78.80
2018-03-06T20:20:05.060Z,79.30
2018-03-06T20:22:31.483Z,79.40
2018-03-06T20:25:04.164Z,79.60
2018-03-06T20:27:30.416Z,80.20
2018-03-06T20:29:56.751Z,80.50
2018-03-06T20:32:29.771Z,79.90
2018-03-06T20:34:56.056Z,79.50
2018-03-06T20:37:22.462Z,80.10
2018-03-06T20:39:54.741Z,80.10
2018-03-06T20:42:21.326Z,80.30
2018-03-06T20:44:47.631Z,80.80
2018-03-06T20:47:19.843Z,81.10
2018-03-06T20:49:46.124Z,81.50
2018-03-06T20:52:12.388Z,82.30
2018-03-06T20:54:44.627Z,82.50
2018-03-06T20:57:10.890Z,82.70
2018-03-06T20:59:37.267Z,83.20
2018-03-06T21:02:03.560Z,83.80
2018-03-06T21:04:29.983Z,83.90
2018-03-06T21:06:56.274Z,84.30
2018-03-06T21:09:22.608Z,84.50
2018-03-06T21:11:48.864Z,84.80
2018-03-06T21:14:15.251Z,85.20
2018-03-06T21:16:41.528Z,85.30
2018-03-06T21:19:08.165Z,85.60
2018-03-06T21:21:34.443Z,85.70
2018-03-06T21:24:00.700Z,85.10
2018-03-06T21:26:27.817Z,84.90
2018-03-06T21:28:54.083Z,84.90
2018-03-06T21:31:21.040Z,85.80
2018-03-06T21:33:48.028Z,85.10
2018-03-06T21:36:14.316Z,85.10
2018-03-06T21:38:40.567Z,85.70
2018-03-06T21:41:07.211Z,86.10
2018-03-06T21:43:33.471Z,86.20
2018-03-06T21:45:59.790Z,86.20
2018-03-06T21:48:26.040Z,86.30
2018-03-06T21:50:53.898Z,86.40
2018-03-06T21:53:23.574Z,86.40
2018-03-06T21:55:49.835Z,86.50
2018-03-06T21:58:16.216Z,86.30
2018-03-06T22:00:42.600Z,86.60
2018-03-06T22:03:12.809Z,86.70
2018-03-06T22:05:47.460Z,87.00
2018-03-06T22:08:13.750Z,86.70
2018-03-06T22:10:40.007Z,85.70
2018-03-06T22:13:06.369Z,85.90
2018-03-06T22:15:32.669Z,85.40
2018-03-06T22:17:59.039Z,85.20
2018-03-06T22:20:26.033Z,85.30
2018-03-06T22:22:53.316Z,85.90
2018-03-06T22:25:20.055Z,85.90
2018-03-06T22:27:46.311Z,85.80
2018-03-06T22:30:14.275Z,86.10
2018-03-06T22:32:40.517Z,86.10
2018-03-06T22:35:06.763Z,86.10
2018-03-06T22:37:33.739Z,85.90
2018-03-06T22:42:32.721Z,85.40
2018-03-06T22:44:59.726Z,86.10
2018-03-06T22:47:26.911Z,85.80
2018-03-06T22:49:53.263Z,85.80
2018-03-06T22:52:19.528Z,86.10
2018-03-06T22:54:48.457Z,86.00
2018-03-06T22:57:14.728Z,86.00
2018-03-06T22:59:41.008Z,86.00
2018-03-06T23:02:07.311Z,86.30
2018-03-06T23:04:33.547Z,86.20
2018-03-06T23:06:59.815Z,86.20
2018-03-06T23:09:27.633Z,86.40
2018-03-06T23:11:53.904Z,86.40
2018-03-06T23:14:21.194Z,86.30
2018-03-06T23:16:47.541Z,86.40
2018-03-06T23:19:13.819Z,86.20
2018-03-06T23:21:40.480Z,86.50
2018-03-06T23:24:06.800Z,86.50
2018-03-06T23:26:33.080Z,86.40
2018-03-06T23:28:59.368Z,86.70
2018-03-06T23:31:25.660Z,86.30
2018-03-06T23:33:51.904Z,86.40
2018-03-06T23:36:18.171Z,86.90
2018-03-06T23:38:44.407Z,87.30
2018-03-06T23:41:11.412Z,87.10
2018-03-06T23:43:38.591Z,87.10
2018-03-06T23:46:04.849Z,87.40
2018-03-06T23:48:31.106Z,86.50
2018-03-06T23:50:57.367Z,86.80
2018-03-06T23:53:23.635Z,87.00
2018-03-06T23:55:49.879Z,86.40
2018-03-06T23:58:17.416Z,86.00
